Time;durP1;ratioP1;P1;durP2;ratioP2;P2;SDS_P1;SDS_P2;PMS_P1;PMS_P2;Temp;Humidity;BMP_temperature;BMP_pressure;BME280_temperature;BME280_humidity;BME280_pressure;Samples;Min_cycle;Max_cycle;Signal;HPM_P1;HPM_P2
2023/12/07 00:01:20;;;;;;;15.00;8.17;;;3.90;78.10;;;;;;5030733;28;20358;-72
2023/12/07 00:03:46;;;;;;;13.67;7.33;;;3.90;77.70;;;;;;5039456;28;20216;-72
2023/12/07 00:06:12;;;;;;;15.47;7.50;;;4.00;77.60;;;;;;5037260;28;20261;-74
2023/12/07 00:08:37;;;;;;;13.00;8.00;;;4.00;77.40;;;;;;5032768;28;20193;-73
2023/12/07 00:11:03;;;;;;;13.13;7.30;;;4.00;77.40;;;;;;5029911;28;20235;-73
2023/12/07 00:13:28;;;;;;;14.83;7.37;;;4.10;77.30;;;;;;5032729;28;20195;-74
2023/12/07 00:15:54;;;;;;;14.33;8.20;;;4.00;77.10;;;;;;5039294;28;20212;-72
2023/12/07 00:18:20;;;;;;;14.20;7.13;;;4.00;77.30;;;;;;5039634;28;20185;-73
2023/12/07 00:20:45;;;;;;;11.37;7.00;;;4.00;76.80;;;;;;5030659;28;20705;-73
2023/12/07 00:23:11;;;;;;;12.00;6.63;;;4.00;76.50;;;;;;5035206;28;20216;-71
2023/12/07 00:25:38;;;;;;;13.10;7.73;;;4.00;76.80;;;;;;5038146;28;20278;-75
2023/12/07 00:28:05;;;;;;;12.23;7.17;;;4.10;76.70;;;;;;5038769;28;20427;-74
2023/12/07 00:30:30;;;;;;;12.30;7.30;;;4.10;76.20;;;;;;5029562;28;20491;-71
2023/12/07 00:32:56;;;;;;;9.40;6.73;;;4.00;76.10;;;;;;5026459;28;20530;-73
2023/12/07 00:35:22;;;;;;;12.23;7.47;;;4.00;76.20;;;;;;5028553;28;20272;-75
2023/12/07 00:37:48;;;;;;;14.70;7.67;;;4.00;76.50;;;;;;5036916;28;20192;-75
2023/12/07 00:40:14;;;;;;;13.17;7.23;;;4.00;76.50;;;;;;5030807;28;20312;-73
2023/12/07 00:42:41;;;;;;;10.63;6.97;;;4.00;77.00;;;;;;5038620;28;20471;-74
2023/12/07 00:45:07;;;;;;;11.77;7.27;;;4.10;76.80;;;;;;5041279;28;20422;-75
2023/12/07 00:47:33;;;;;;;10.50;7.07;;;4.10;76.50;;;;;;5040226;28;20515;-73
2023/12/07 00:49:58;;;;;;;14.47;7.20;;;4.10;76.70;;;;;;5029366;28;20514;-72
2023/12/07 00:52:24;;;;;;;13.20;6.97;;;4.10;76.40;;;;;;5034340;28;20188;-74
2023/12/07 00:54:49;;;;;;;11.93;7.00;;;4.10;76.20;;;;;;5034221;28;20185;-71
2023/12/07 00:57:15;;;;;;;11.00;7.50;;;4.00;76.10;;;;;;5030682;28;20185;-74
2023/12/07 00:59:40;;;;;;;14.00;7.17;;;3.90;76.20;;;;;;5028961;28;20296;-73
2023/12/07 01:02:06;;;;;;;13.50;7.50;;;3.90;76.40;;;;;;5032207;28;20206;-74
2023/12/07 01:04:32;;;;;;;13.10;6.97;;;3.90;76.70;;;;;;5034564;28;20271;-74
2023/12/07 01:06:58;;;;;;;11.60;6.60;;;3.90;76.50;;;;;;5034764;28;20419;-71
2023/12/07 01:09:25;;;;;;;13.83;7.30;;;3.90;76.40;;;;;;5029224;28;20474;-75
2023/12/07 01:11:51;;;;;;;15.33;7.40;;;3.90;76.40;;;;;;5032707;28;20931;-73
2023/12/07 01:14:17;;;;;;;11.67;6.67;;;3.90;76.20;;;;;;5031813;28;20424;-72
2023/12/07 01:16:43;;;;;;;12.17;7.60;;;3.90;75.80;;;;;;5032894;28;20552;-73
2023/12/07 01:19:10;;;;;;;12.53;6.27;;;3.90;76.10;;;;;;5031922;28;20492;-74
2023/12/07 01:21:36;;;;;;;10.73;6.20;;;3.90;76.20;;;;;;5025949;28;21074;-71
2023/12/07 01:24:02;;;;;;;10.13;6.13;;;3.90;75.90;;;;;;5033173;28;20511;-74
2023/12/07 01:26:27;;;;;;;10.27;6.27;;;3.90;75.90;;;;;;5032775;28;20185;-73
2023/12/07 01:28:53;;;;;;;13.03;6.40;;;3.90;75.90;;;;;;5034323;28;20496;-72
2023/12/07 01:31:19;;;;;;;12.83;6.47;;;4.00;75.20;;;;;;5026997;28;20824;-75
2023/12/07 01:33:44;;;;;;;12.97;7.53;;;4.00;75.10;;;;;;5033624;28;20209;-73
2023/12/07 01:36:11;;;;;;;12.00;7.03;;;3.90;75.10;;;;;;5030113;28;20868;-75
2023/12/07 01:38:36;;;;;;;15.40;7.60;;;3.90;75.50;;;;;;5032070;28;20780;-75
2023/12/07 01:41:02;;;;;;;12.23;6.03;;;4.00;75.10;;;;;;5025452;28;20482;-74
2023/12/07 01:43:28;;;;;;;12.20;6.60;;;4.00;74.60;;;;;;5030277;28;20302;-72
2023/12/07 01:45:56;;;;;;;10.00;6.17;;;4.00;74.90;;;;;;5034157;28;20185;-72
2023/12/07 01:48:23;;;;;;;8.47;5.27;;;4.00;74.60;;;;;;5034318;28;20196;-74
2023/12/07 01:50:49;;;;;;;14.40;6.27;;;4.10;74.80;;;;;;5032077;28;20571;-73
2023/12/07 01:53:15;;;;;;;8.90;5.67;;;4.00;74.60;;;;;;5033761;28;20452;-73
2023/12/07 01:55:42;;;;;;;9.87;6.20;;;4.00;74.80;;;;;;5039657;28;20438;-73
2023/12/07 01:58:08;;;;;;;14.83;6.57;;;4.00;74.80;;;;;;5032230;28;20428;-73
2023/12/07 02:00:34;;;;;;;12.70;6.43;;;4.00;74.90;;;;;;5029684;28;20550;-72
2023/12/07 02:03:04;;;;;;;12.97;6.33;;;4.00;75.20;;;;;;5029436;28;20468;-73
2023/12/07 02:05:30;;;;;;;9.40;5.60;;;4.00;74.90;;;;;;5023326;28;20512;-74
2023/12/07 02:07:55;;;;;;;12.47;6.30;;;4.10;74.90;;;;;;5033459;28;20424;-73
2023/12/07 02:10:21;;;;;;;10.17;5.87;;;4.00;74.80;;;;;;5029080;28;20477;-72
2023/12/07 02:12:48;;;;;;;12.33;6.60;;;3.90;75.10;;;;;;5032445;28;20197;-73
2023/12/07 02:15:14;;;;;;;12.97;6.23;;;3.90;75.20;;;;;;5031343;28;20185;-73
2023/12/07 02:18:02;;;;;;;16.93;6.77;;;3.90;75.50;;;;;;5045362;28;20431;-72
2023/12/07 02:20:37;;;;;;;13.87;6.40;;;3.90;75.80;;;;;;5024684;28;20590;-71
2023/12/07 02:23:06;;;;;;;12.40;6.90;;;3.80;75.90;;;;;;5030630;28;20470;-74
2023/12/07 02:25:50;;;;;;;12.33;6.40;;;3.80;76.10;;;;;;5032238;28;20507;-72
2023/12/07 02:28:16;;;;;;;13.30;6.90;;;3.80;76.40;;;;;;5031007;28;20408;-72
2023/12/07 02:30:42;;;;;;;11.57;6.87;;;3.70;76.80;;;;;;5033572;28;20847;-73
2023/12/07 02:33:08;;;;;;;10.40;6.10;;;3.80;76.80;;;;;;5037699;28;20428;-72
2023/12/07 02:35:35;;;;;;;9.17;5.97;;;3.80;76.20;;;;;;5033234;28;20196;-73
2023/12/07 02:38:02;;;;;;;10.20;6.20;;;3.80;76.50;;;;;;5030603;28;20423;-73
2023/12/07 02:40:28;;;;;;;10.87;6.30;;;3.80;76.40;;;;;;5023956;28;20990;-74
2023/12/07 02:42:55;;;;;;;12.57;6.37;;;3.70;76.70;;;;;;5027674;28;21010;-73
2023/12/07 02:45:21;;;;;;;14.30;7.00;;;3.60;77.10;;;;;;5027686;28;20420;-73
2023/12/07 02:47:46;;;;;;;11.20;6.30;;;3.50;77.60;;;;;;5029012;28;20427;-72
2023/12/07 02:50:13;;;;;;;13.03;5.90;;;3.40;77.80;;;;;;5022498;28;20821;-74
2023/12/07 02:52:39;;;;;;;11.53;6.50;;;3.50;78.30;;;;;;5030796;28;20192;-72
2023/12/07 02:55:05;;;;;;;10.37;6.30;;;3.40;78.30;;;;;;5028846;28;20419;-74
2023/12/07 02:57:33;;;;;;;13.00;5.50;;;3.40;78.40;;;;;;5026574;28;20412;-72
2023/12/07 02:59:59;;;;;;;12.57;6.77;;;3.40;78.70;;;;;;5026066;28;20448;-74
2023/12/07 03:02:25;;;;;;;10.93;6.07;;;3.50;78.90;;;;;;5035368;28;20471;-73
2023/12/07 03:04:50;;;;;;;9.53;5.50;;;3.50;78.90;;;;;;5033361;28;20428;-73
2023/12/07 03:07:16;;;;;;;10.73;5.97;;;3.50;79.00;;;;;;5036672;28;20947;-73
2023/12/07 03:09:42;;;;;;;9.90;5.80;;;3.50;79.00;;;;;;5029729;28;20214;-72
2023/12/07 03:12:07;;;;;;;12.83;7.23;;;3.50;79.30;;;;;;5031437;28;20271;-74
2023/12/07 03:14:33;;;;;;;13.17;6.83;;;3.50;79.30;;;;;;5038232;28;20188;-74
2023/12/07 03:16:59;;;;;;;13.23;6.17;;;3.50;79.60;;;;;;5038797;28;20184;-76
2023/12/07 03:19:25;;;;;;;14.40;7.40;;;3.40;79.60;;;;;;5027990;28;20523;-73
2023/12/07 03:21:51;;;;;;;11.50;6.40;;;3.30;79.90;;;;;;5028990;28;20185;-73
2023/12/07 03:24:16;;;;;;;12.10;7.13;;;3.20;80.00;;;;;;5029277;28;20436;-72
2023/12/07 03:26:42;;;;;;;12.80;7.07;;;3.10;80.20;;;;;;5028219;28;20211;-73
2023/12/07 03:29:07;;;;;;;12.43;7.40;;;3.10;80.80;;;;;;5029566;28;20597;-72
2023/12/07 03:31:33;;;;;;;12.77;6.87;;;3.10;80.80;;;;;;5026930;28;20185;-74
2023/12/07 03:34:00;;;;;;;14.43;6.50;;;3.00;80.60;;;;;;5030756;28;20185;-73
2023/12/07 03:36:26;;;;;;;13.45;6.90;;;3.00;80.60;;;;;;5031068;28;20521;-73
2023/12/07 03:38:52;;;;;;;11.77;7.00;;;2.90;80.90;;;;;;5033295;28;20670;-72
2023/12/07 03:41:18;;;;;;;13.60;6.43;;;2.90;81.40;;;;;;5027488;28;20472;-72
2023/12/07 03:43:44;;;;;;;11.10;7.03;;;2.90;81.70;;;;;;5034135;28;20212;-73
2023/12/07 03:46:09;;;;;;;11.40;6.40;;;2.90;81.70;;;;;;5037058;28;20438;-75
2023/12/07 03:48:35;;;;;;;12.50;7.13;;;3.00;81.50;;;;;;5036123;28;20178;-72
2023/12/07 03:51:01;;;;;;;16.17;7.60;;;2.90;81.10;;;;;;5027334;28;20577;-71
2023/12/07 03:53:27;;;;;;;15.87;7.43;;;2.80;81.20;;;;;;5033449;28;20275;-73
2023/12/07 03:55:54;;;;;;;14.50;6.80;;;2.80;81.40;;;;;;5035930;28;20764;-74
2023/12/07 03:58:19;;;;;;;13.47;7.40;;;2.80;81.40;;;;;;5034285;28;20438;-72
2023/12/07 04:00:45;;;;;;;11.30;7.10;;;2.60;81.50;;;;;;5026920;28;20468;-74
2023/12/07 04:03:11;;;;;;;11.57;7.07;;;2.50;81.80;;;;;;5036832;28;20254;-74
2023/12/07 04:05:37;;;;;;;13.20;7.70;;;2.50;82.10;;;;;;5041085;28;20180;-73
2023/12/07 04:08:05;;;;;;;14.68;7.57;;;2.50;82.20;;;;;;5038272;28;20188;-74
2023/12/07 04:10:30;;;;;;;15.65;7.80;;;2.40;82.10;;;;;;5035060;28;20216;-73
2023/12/07 04:12:56;;;;;;;13.93;8.00;;;2.30;82.20;;;;;;5032258;28;20181;-72
2023/12/07 04:15:22;;;;;;;14.37;7.30;;;2.30;82.70;;;;;;5040432;28;20850;-72
2023/12/07 04:17:48;;;;;;;16.65;8.48;;;2.20;83.00;;;;;;5039590;28;20264;-74
2023/12/07 04:20:14;;;;;;;15.53;8.00;;;2.30;83.00;;;;;;5033848;28;20243;-73
2023/12/07 04:22:40;;;;;;;16.00;8.30;;;2.20;83.10;;;;;;5036031;28;20213;-73
2023/12/07 04:25:06;;;;;;;19.70;8.70;;;2.10;83.10;;;;;;5038514;28;20185;-74
2023/12/07 04:27:33;;;;;;;17.77;8.13;;;2.10;83.40;;;;;;5038391;28;20181;-72
2023/12/07 04:29:59;;;;;;;21.75;8.63;;;2.10;83.60;;;;;;5029610;28;20221;-74
2023/12/07 04:32:25;;;;;;;19.77;9.43;;;2.00;83.60;;;;;;5037041;28;20223;-74
2023/12/07 04:34:51;;;;;;;14.38;7.88;;;2.00;83.60;;;;;;5034837;28;20196;-71
2023/12/07 04:37:17;;;;;;;17.23;8.80;;;1.90;83.60;;;;;;5037395;28;20177;-72
2023/12/07 04:39:42;;;;;;;15.00;8.10;;;2.00;83.80;;;;;;5036225;28;20296;-74
2023/12/07 04:42:08;;;;;;;15.23;8.20;;;1.90;83.80;;;;;;5039839;28;20266;-73
2023/12/07 04:44:33;;;;;;;14.60;8.40;;;1.90;83.80;;;;;;5033519;28;20247;-74
2023/12/07 04:46:59;;;;;;;17.57;9.63;;;1.80;84.00;;;;;;5039766;28;20178;-74
2023/12/07 04:49:24;;;;;;;16.87;9.20;;;1.80;84.40;;;;;;5033497;28;20200;-73
2023/12/07 04:51:50;;;;;;;15.33;8.23;;;1.70;84.60;;;;;;5029354;28;20597;-75
2023/12/07 04:54:16;;;;;;;12.77;8.00;;;1.70;84.70;;;;;;5035752;28;20232;-72
2023/12/07 04:56:41;;;;;;;15.90;8.97;;;1.60;84.90;;;;;;5033736;28;20184;-74
2023/12/07 04:59:08;;;;;;;17.70;9.40;;;1.50;84.90;;;;;;5032118;28;20260;-74
2023/12/07 05:01:35;;;;;;;23.33;9.55;;;1.50;85.00;;;;;;5028083;28;20267;-71
2023/12/07 05:04:03;;;;;;;21.00;9.52;;;1.60;85.20;;;;;;5035764;28;20266;-72
2023/12/07 05:06:30;;;;;;;17.50;9.40;;;1.70;85.20;;;;;;5045525;28;20189;-75
2023/12/07 05:08:55;;;;;;;17.77;8.53;;;1.60;85.00;;;;;;5035914;28;20200;-73
2023/12/07 05:11:21;;;;;;;19.33;9.87;;;1.60;85.00;;;;;;5028430;28;20490;-75
2023/12/07 05:13:47;;;;;;;19.17;8.87;;;1.60;85.00;;;;;;5027325;28;20559;-75
2023/12/07 05:16:13;;;;;;;17.98;9.77;;;1.60;84.90;;;;;;5032297;28;20187;-73
2023/12/07 05:18:39;;;;;;;19.23;9.50;;;1.60;84.90;;;;;;5031911;28;20184;-78
2023/12/07 05:21:05;;;;;;;19.63;9.13;;;1.60;84.70;;;;;;5025378;28;20205;-73
2023/12/07 05:23:31;;;;;;;19.03;9.60;;;1.60;84.90;;;;;;5033514;28;20468;-73
2023/12/07 05:25:56;;;;;;;21.97;10.90;;;1.50;84.90;;;;;;5035295;28;20427;-73
2023/12/07 05:28:22;;;;;;;20.80;9.13;;;1.40;84.90;;;;;;5028968;28;20204;-71
2023/12/07 05:30:48;;;;;;;19.17;9.90;;;1.30;85.20;;;;;;5021561;28;20202;-71
2023/12/07 05:33:14;;;;;;;18.50;9.60;;;1.30;85.20;;;;;;5032975;28;20450;-73
2023/12/07 05:35:40;;;;;;;17.15;9.52;;;1.30;85.30;;;;;;5032789;28;20197;-72
2023/12/07 05:38:05;;;;;;;22.97;10.43;;;1.30;85.50;;;;;;5031955;28;20296;-72
2023/12/07 05:40:31;;;;;;;20.27;12.33;;;1.20;85.30;;;;;;5031240;28;20697;-73
2023/12/07 05:42:57;;;;;;;20.70;10.43;;;1.20;85.50;;;;;;5038162;28;20232;-75
2023/12/07 05:45:23;;;;;;;23.40;11.10;;;1.20;85.60;;;;;;5035848;28;20818;-73
2023/12/07 05:47:48;;;;;;;21.40;10.27;;;1.20;85.70;;;;;;5038843;28;20586;-73
2023/12/07 05:50:14;;;;;;;18.53;9.77;;;1.10;85.60;;;;;;5036955;28;20216;-74
2023/12/07 05:52:39;;;;;;;18.63;9.53;;;1.20;85.70;;;;;;5032450;28;20181;-72
2023/12/07 05:55:06;;;;;;;20.07;10.23;;;1.20;85.70;;;;;;5032933;28;20265;-75
2023/12/07 05:57:31;;;;;;;15.45;8.00;;;1.10;85.70;;;;;;5030003;28;20197;-75
2023/12/07 05:59:57;;;;;;;19.37;9.60;;;1.10;85.70;;;;;;5028224;28;20232;-74
2023/12/07 06:02:22;;;;;;;21.23;9.23;;;1.10;85.70;;;;;;5028273;28;20201;-73
2023/12/07 06:04:48;;;;;;;20.60;9.90;;;1.10;85.90;;;;;;5029386;28;20857;-72
2023/12/07 06:07:14;;;;;;;22.47;9.53;;;1.10;85.70;;;;;;5034660;28;20257;-75
2023/12/07 06:09:41;;;;;;;23.73;10.33;;;1.10;85.90;;;;;;5026411;28;20895;-74
2023/12/07 06:12:07;;;;;;;22.27;10.50;;;1.10;85.90;;;;;;5035588;28;20189;-73
2023/12/07 06:14:32;;;;;;;20.07;10.13;;;1.00;85.70;;;;;;5036464;28;20215;-73
2023/12/07 06:16:59;;;;;;;18.40;8.43;;;1.00;85.70;;;;;;5029433;28;20212;-73
2023/12/07 06:19:24;;;;;;;15.02;9.13;;;1.00;86.00;;;;;;5031733;28;20739;-73
2023/12/07 06:21:50;;;;;;;19.27;10.53;;;0.90;86.00;;;;;;5027087;28;20221;-74
2023/12/07 06:24:16;;;;;;;17.87;9.30;;;1.00;86.30;;;;;;5030523;28;20900;-74
2023/12/07 06:26:41;;;;;;;19.60;10.50;;;1.00;86.30;;;;;;5030725;28;20177;-76
2023/12/07 06:29:07;;;;;;;20.43;9.10;;;1.00;86.30;;;;;;5029759;28;20181;-75
2023/12/07 06:31:33;;;;;;;20.47;9.93;;;1.10;86.30;;;;;;5044654;28;20417;-74
2023/12/07 06:34:00;;;;;;;17.38;8.73;;;1.00;86.00;;;;;;5034234;28;20184;-75
2023/12/07 06:36:27;;;;;;;19.38;9.57;;;1.00;86.20;;;;;;5028858;28;21063;-75
2023/12/07 06:38:54;;;;;;;24.30;9.93;;;1.00;86.20;;;;;;5030218;28;20187;-75
2023/12/07 06:41:20;;;;;;;20.83;10.50;;;0.90;86.30;;;;;;5024844;28;20242;-75
2023/12/07 06:43:46;;;;;;;21.13;9.33;;;1.00;86.50;;;;;;5030111;28;20217;-75
2023/12/07 06:46:13;;;;;;;19.83;10.40;;;1.00;86.30;;;;;;5030961;28;20201;-75
2023/12/07 06:48:39;;;;;;;16.05;8.93;;;1.00;86.30;;;;;;5028197;28;20491;-72
2023/12/07 06:51:05;;;;;;;17.20;8.50;;;1.00;86.30;;;;;;5024992;28;20293;-74
2023/12/07 06:53:31;;;;;;;18.80;9.40;;;1.00;86.30;;;;;;5031179;28;20427;-75
2023/12/07 06:55:57;;;;;;;20.77;9.10;;;1.00;86.30;;;;;;5043755;28;20189;-73
2023/12/07 06:58:23;;;;;;;17.67;9.43;;;0.90;86.20;;;;;;5040415;28;20200;-74
2023/12/07 07:00:49;;;;;;;21.27;10.30;;;1.00;86.30;;;;;;5029954;28;20557;-71
2023/12/07 07:03:15;;;;;;;21.83;10.50;;;1.00;86.50;;;;;;5031958;28;20292;-74
2023/12/07 07:05:41;;;;;;;22.85;9.70;;;1.00;86.30;;;;;;5032033;28;20921;-73
2023/12/07 07:08:07;;;;;;;22.83;11.10;;;0.90;86.20;;;;;;5030857;28;20191;-74
2023/12/07 07:10:33;;;;;;;22.85;11.05;;;0.80;86.20;;;;;;5028921;28;20235;-75
2023/12/07 07:13:05;;;;;;;20.27;9.90;;;0.90;86.30;;;;;;5031049;28;20215;-74
2023/12/07 07:15:32;;;;;;;23.38;12.02;;;0.90;86.30;;;;;;5031824;28;20646;-73
2023/12/07 07:17:58;;;;;;;28.73;10.68;;;0.90;86.50;;;;;;5032884;28;20272;-72
2023/12/07 07:20:26;;;;;;;27.43;10.77;;;0.80;86.30;;;;;;5030653;28;20299;-73
2023/12/07 07:22:51;;;;;;;31.52;11.02;;;0.90;86.30;;;;;;5034311;28;20576;-72
2023/12/07 07:25:19;;;;;;;21.43;10.27;;;0.90;86.50;;;;;;5039054;28;20185;-73
2023/12/07 07:27:47;;;;;;;17.02;8.95;;;0.90;86.30;;;;;;5033905;28;20186;-73
2023/12/07 07:30:13;;;;;;;17.10;8.95;;;0.80;86.30;;;;;;5039569;28;20201;-72
2023/12/07 07:32:40;;;;;;;20.90;9.35;;;0.80;86.30;;;;;;5031694;28;20189;-75
2023/12/07 07:35:06;;;;;;;21.65;10.50;;;0.80;86.30;;;;;;5034445;28;20182;-74
2023/12/07 07:37:31;;;;;;;19.00;9.47;;;0.80;86.50;;;;;;5028240;28;20177;-74
2023/12/07 07:39:57;;;;;;;18.83;9.93;;;0.80;86.50;;;;;;5026895;28;20476;-75
2023/12/07 07:42:22;;;;;;;20.87;10.97;;;0.90;86.60;;;;;;5031929;28;20208;-72
2023/12/07 07:44:48;;;;;;;21.07;10.60;;;0.90;86.60;;;;;;5028975;28;20181;-72
2023/12/07 07:47:14;;;;;;;19.23;10.97;;;0.80;86.60;;;;;;5031230;28;20189;-72
2023/12/07 07:49:39;;;;;;;21.50;11.10;;;0.80;86.60;;;;;;5027757;28;20302;-73
2023/12/07 07:52:05;;;;;;;25.60;11.97;;;0.90;86.60;;;;;;5032967;28;20199;-73
2023/12/07 07:54:31;;;;;;;20.13;11.10;;;0.90;86.80;;;;;;5036845;28;20201;-74
2023/12/07 07:56:57;;;;;;;25.80;11.20;;;1.00;86.60;;;;;;5036425;28;20220;-73
2023/12/07 07:59:22;;;;;;;19.55;10.77;;;1.00;86.60;;;;;;5031200;28;20935;-74
2023/12/07 08:01:48;;;;;;;22.73;11.13;;;1.10;86.50;;;;;;5050779;28;20185;-75
2023/12/07 08:04:15;;;;;;;24.47;10.43;;;1.00;86.30;;;;;;5036722;28;20685;-72
2023/12/07 08:06:41;;;;;;;27.75;11.52;;;1.00;86.00;;;;;;5035457;28;20496;-72
2023/12/07 08:09:09;;;;;;;28.30;12.63;;;1.00;86.30;;;;;;5033263;28;20224;-74
2023/12/07 08:11:35;;;;;;;25.60;11.60;;;1.00;86.00;;;;;;5031306;28;20185;-73
2023/12/07 08:14:00;;;;;;;24.90;11.57;;;1.00;86.30;;;;;;5031866;28;20185;-73
2023/12/07 08:16:27;;;;;;;26.10;12.27;;;0.90;86.30;;;;;;5030541;28;20201;-72
2023/12/07 08:18:53;;;;;;;26.55;13.43;;;0.90;86.30;;;;;;5032314;28;20181;-73
2023/12/07 08:21:22;;;;;;;23.83;12.13;;;0.90;86.30;;;;;;5030061;28;20267;-74
2023/12/07 08:23:48;;;;;;;24.65;12.38;;;1.00;86.50;;;;;;5039527;28;20273;-73
2023/12/07 08:26:14;;;;;;;27.70;13.40;;;1.00;86.50;;;;;;5039199;28;20200;-74
2023/12/07 08:28:43;;;;;;;24.63;13.23;;;1.10;86.60;;;;;;5042693;28;20255;-74
2023/12/07 08:31:10;;;;;;;24.45;13.43;;;1.10;86.50;;;;;;5043074;28;20284;-75
2023/12/07 08:33:39;;;;;;;26.85;12.50;;;1.10;86.30;;;;;;5041698;28;20213;-75
2023/12/07 08:36:05;;;;;;;22.52;11.50;;;1.20;86.20;;;;;;5036681;28;20185;-74
2023/12/07 08:38:32;;;;;;;28.90;16.08;;;1.30;86.30;;;;;;5034612;28;20181;-74
2023/12/07 08:40:58;;;;;;;29.45;14.40;;;1.40;86.20;;;;;;5036096;28;20224;-73
2023/12/07 08:43:24;;;;;;;25.00;12.83;;;1.30;86.00;;;;;;5042207;28;20213;-72
2023/12/07 08:45:51;;;;;;;27.02;13.00;;;1.30;85.90;;;;;;5043853;28;20422;-73
2023/12/07 08:48:18;;;;;;;27.55;13.40;;;1.30;85.90;;;;;;5043837;28;20713;-73
2023/12/07 08:50:43;;;;;;;20.42;11.18;;;1.40;85.90;;;;;;5038927;28;20209;-73
2023/12/07 08:53:09;;;;;;;25.60;12.37;;;1.40;85.70;;;;;;5040793;28;20185;-72
2023/12/07 08:55:34;;;;;;;26.60;13.97;;;1.50;85.70;;;;;;5034790;28;20182;-75
2023/12/07 08:58:00;;;;;;;24.97;12.77;;;1.50;85.70;;;;;;5033773;28;20264;-73
2023/12/07 09:00:26;;;;;;;26.53;12.17;;;1.50;85.60;;;;;;5027346;28;20275;-72
2023/12/07 09:02:51;;;;;;;23.00;12.97;;;1.50;85.50;;;;;;5034639;28;20200;-74
2023/12/07 09:05:17;;;;;;;23.50;12.73;;;1.60;85.50;;;;;;5033913;28;20193;-74
2023/12/07 09:07:43;;;;;;;24.50;13.10;;;1.70;85.50;;;;;;5033515;28;20185;-74
2023/12/07 09:10:10;;;;;;;22.00;11.63;;;1.80;85.50;;;;;;5029075;28;20459;-72
2023/12/07 09:12:35;;;;;;;18.23;11.00;;;1.90;85.50;;;;;;5033494;28;20420;-71
2023/12/07 09:15:03;;;;;;;20.73;10.80;;;2.00;85.30;;;;;;5033968;28;20239;-73
2023/12/07 09:17:28;;;;;;;23.05;11.85;;;2.10;84.90;;;;;;5028965;28;20528;-72
2023/12/07 09:19:54;;;;;;;26.90;13.00;;;2.10;84.60;;;;;;5025138;28;20322;-72
2023/12/07 09:22:20;;;;;;;20.33;11.47;;;2.10;84.40;;;;;;5029918;28;20597;-71
2023/12/07 09:24:46;;;;;;;20.97;11.50;;;2.10;84.30;;;;;;5029941;28;20637;-73
2023/12/07 09:27:13;;;;;;;25.60;12.60;;;2.10;84.10;;;;;;5035079;28;20189;-76
2023/12/07 09:29:40;;;;;;;20.70;11.05;;;2.10;84.10;;;;;;5040493;28;20270;-73
2023/12/07 09:32:07;;;;;;;28.55;12.23;;;2.20;84.00;;;;;;5044200;28;20189;-74
2023/12/07 09:34:33;;;;;;;23.58;11.40;;;2.20;83.80;;;;;;5035687;28;20193;-74
2023/12/07 09:37:10;;;;;;;23.63;11.90;;;2.30;83.60;;;;;;5035162;28;20181;-73
2023/12/07 09:39:36;;;;;;;22.52;12.00;;;2.40;83.30;;;;;;5029961;28;20201;-74
2023/12/07 09:42:02;;;;;;;29.77;13.40;;;2.50;83.10;;;;;;5034325;28;20192;-77
2023/12/07 09:44:28;;;;;;;22.70;12.03;;;2.60;82.80;;;;;;5034683;28;20438;-73
2023/12/07 09:46:54;;;;;;;28.50;12.03;;;2.60;82.70;;;;;;5033045;28;20428;-74
2023/12/07 09:49:20;;;;;;;26.97;12.77;;;2.70;82.70;;;;;;5029174;28;20439;-74
2023/12/07 09:51:47;;;;;;;29.17;12.50;;;2.80;82.20;;;;;;5033071;28;20423;-72
2023/12/07 09:54:13;;;;;;;26.97;12.40;;;2.80;82.10;;;;;;5034558;28;20482;-72
2023/12/07 09:56:38;;;;;;;22.27;11.90;;;3.00;81.70;;;;;;5041429;28;20424;-74
2023/12/07 09:59:05;;;;;;;25.83;13.20;;;3.00;81.20;;;;;;5036286;28;20994;-72
2023/12/07 10:01:31;;;;;;;24.27;13.00;;;3.10;81.10;;;;;;5026319;28;20580;-73
2023/12/07 10:04:20;;;;;;;24.07;12.07;;;3.10;80.90;;;;;;5032423;28;20547;-73
2023/12/07 10:06:47;;;;;;;25.70;12.77;;;3.10;80.50;;;;;;5032543;28;20420;-74
2023/12/07 10:09:14;;;;;;;27.33;12.97;;;3.20;80.30;;;;;;5034598;28;20507;-75
2023/12/07 10:11:40;;;;;;;27.93;11.27;;;3.30;80.20;;;;;;5036661;28;20474;-74
2023/12/07 10:14:09;;;;;;;21.60;12.30;;;3.30;80.00;;;;;;5034302;28;20430;-75
2023/12/07 10:16:36;;;;;;;21.80;11.20;;;3.30;79.70;;;;;;5030013;28;20427;-72
2023/12/07 10:19:16;;;;;;;18.07;9.10;;;3.40;78.90;;;;;;5032272;28;20481;-74
2023/12/07 10:21:42;;;;;;;18.73;10.33;;;3.30;78.00;;;;;;5027299;28;20841;-74
2023/12/07 10:24:09;;;;;;;17.33;10.00;;;3.40;77.70;;;;;;5036585;28;20547;-71
2023/12/07 10:26:39;;;;;;;18.20;10.10;;;3.40;77.40;;;;;;5031985;28;20177;-73
2023/12/07 10:29:05;;;;;;;24.20;10.47;;;3.60;77.30;;;;;;5031768;28;20926;-74
2023/12/07 10:31:32;;;;;;;12.50;6.37;;;3.80;77.00;;;;;;5029482;28;20590;-72
2023/12/07 10:33:59;;;;;;;9.77;4.90;;;4.00;75.40;;;;;;5039419;28;20420;-73
2023/12/07 10:36:25;;;;;;;12.87;4.80;;;4.20;72.10;;;;;;5040163;28;20432;-74
2023/12/07 10:38:53;;;;;;;7.00;4.53;;;4.50;70.40;;;;;;5037323;28;20428;-72
2023/12/07 10:41:21;;;;;;;8.40;5.10;;;4.70;69.10;;;;;;5027144;28;20479;-72
2023/12/07 10:44:13;;;;;;;7.93;4.50;;;4.90;68.30;;;;;;5028500;28;20475;-73
2023/12/07 10:46:42;;;;;;;7.40;5.07;;;5.00;68.50;;;;;;5035504;28;20408;-73
2023/12/07 10:49:10;;;;;;;12.30;6.53;;;5.20;68.00;;;;;;5036359;28;20431;-74
2023/12/07 10:51:45;;;;;;;12.67;6.77;;;5.50;68.20;;;;;;5033539;28;20475;-75
2023/12/07 10:54:14;;;;;;;6.50;4.30;;;5.90;68.20;;;;;;5034582;28;20462;-75
2023/12/07 10:56:43;;;;;;;7.10;4.10;;;6.10;65.40;;;;;;5040026;28;20454;-72
2023/12/07 10:59:13;;;;;;;8.80;4.80;;;6.00;64.40;;;;;;5042009;28;20443;-74
2023/12/07 11:01:42;;;;;;;6.33;4.50;;;5.90;64.10;;;;;;5036170;28;20479;-74
2023/12/07 11:04:15;;;;;;;6.80;3.90;;;5.80;64.10;;;;;;5033566;28;20467;-72
2023/12/07 11:06:44;;;;;;;5.80;3.93;;;5.60;64.10;;;;;;5040619;28;20882;-72
2023/12/07 11:09:19;;;;;;;11.10;4.70;;;5.50;65.30;;;;;;5036263;28;20431;-73
2023/12/07 11:11:58;;;;;;;9.60;4.40;;;5.30;65.70;;;;;;5038379;28;20455;-73
2023/12/07 11:14:24;;;;;;;7.47;4.50;;;5.30;66.10;;;;;;5041650;28;20944;-76
2023/12/07 11:16:53;;;;;;;6.30;3.47;;;5.20;66.30;;;;;;5033302;28;20547;-74
2023/12/07 11:19:41;;;;;;;6.33;3.53;;;5.20;66.10;;;;;;5028699;28;20543;-75
2023/12/07 11:22:09;;;;;;;4.50;3.00;;;5.30;64.80;;;;;;5030293;28;20869;-75
2023/12/07 11:24:36;;;;;;;6.50;3.17;;;5.30;64.10;;;;;;5033136;28;20435;-75
2023/12/07 11:27:02;;;;;;;6.83;2.97;;;5.30;63.50;;;;;;5031601;28;20468;-73
2023/12/07 11:29:29;;;;;;;6.97;3.40;;;5.20;63.40;;;;;;5029244;28;20513;-73
2023/12/07 11:32:03;;;;;;;7.23;3.80;;;5.20;63.10;;;;;;5030618;28;20482;-75
2023/12/07 11:34:42;;;;;;;7.73;3.20;;;5.30;63.10;;;;;;5031572;28;20439;-75
2023/12/07 11:37:09;;;;;;;5.50;3.10;;;5.30;63.70;;;;;;5032570;28;20436;-73
2023/12/07 11:39:45;;;;;;;5.63;3.27;;;5.30;64.20;;;;;;5030341;28;20752;-74
2023/12/07 11:42:12;;;;;;;5.67;2.90;;;5.40;64.70;;;;;;5034155;28;20446;-75
2023/12/07 11:44:40;;;;;;;7.87;4.00;;;5.40;64.80;;;;;;5032111;28;20432;-73
2023/12/07 11:47:07;;;;;;;5.70;3.40;;;5.40;65.30;;;;;;5030509;28;20489;-73
2023/12/07 11:49:34;;;;;;;6.90;4.00;;;5.40;65.10;;;;;;5026713;28;20463;-73
2023/12/07 11:52:00;;;;;;;6.57;3.83;;;5.40;65.60;;;;;;5026046;28;20416;-75
2023/12/07 11:54:28;;;;;;;9.80;3.80;;;5.40;65.80;;;;;;5034971;28;20420;-73
2023/12/07 11:56:55;;;;;;;8.67;4.67;;;5.40;65.70;;;;;;5038067;28;20427;-74
2023/12/07 11:59:22;;;;;;;7.93;4.33;;;5.50;66.00;;;;;;5038892;28;20440;-74
2023/12/07 12:01:48;;;;;;;9.10;4.50;;;5.60;66.10;;;;;;5047159;28;20866;-74
2023/12/07 12:04:15;;;;;;;7.90;4.33;;;5.60;65.80;;;;;;5039127;28;20475;-73
2023/12/07 12:06:44;;;;;;;6.60;4.03;;;5.60;66.00;;;;;;5038462;28;20436;-74
2023/12/07 12:09:11;;;;;;;11.90;4.90;;;5.60;65.80;;;;;;5035816;28;20416;-74
2023/12/07 12:11:37;;;;;;;10.30;4.90;;;5.60;65.70;;;;;;5033684;28;20814;-75
2023/12/07 12:14:04;;;;;;;6.70;4.00;;;5.50;66.00;;;;;;5037811;28;20427;-72
2023/12/07 12:16:30;;;;;;;9.20;5.07;;;5.60;65.70;;;;;;5035585;28;20549;-72
2023/12/07 12:18:56;;;;;;;8.63;5.30;;;5.60;65.60;;;;;;5038055;28;20446;-72
2023/12/07 12:21:22;;;;;;;11.23;4.73;;;5.60;65.80;;;;;;5027451;28;20200;-74
2023/12/07 12:23:49;;;;;;;6.57;4.33;;;5.60;66.00;;;;;;5043623;28;20545;-74
2023/12/07 12:26:18;;;;;;;8.70;4.80;;;5.70;65.80;;;;;;5044547;28;20509;-73
2023/12/07 12:28:44;;;;;;;7.83;4.60;;;5.70;66.10;;;;;;5043052;28;20428;-74
2023/12/07 12:31:12;;;;;;;7.37;4.57;;;5.70;65.80;;;;;;5041635;28;20447;-74
2023/12/07 12:33:38;;;;;;;7.60;4.77;;;5.70;65.70;;;;;;5044958;28;20449;-74
2023/12/07 12:36:06;;;;;;;12.40;5.87;;;5.80;66.10;;;;;;5037471;28;20477;-74
2023/12/07 12:38:32;;;;;;;7.70;5.10;;;5.90;66.30;;;;;;5040777;28;20212;-73
2023/12/07 12:40:58;;;;;;;8.83;5.37;;;6.00;66.00;;;;;;5030911;28;20505;-74
2023/12/07 12:43:24;;;;;;;10.50;5.40;;;6.10;66.10;;;;;;5031992;28;20555;-73